sensor_id;sensor_type;location;lat;lon;timestamp;P1;durP1;ratioP1;P2;durP2;ratioP2
16665;SDS011;8446;50.998;6.250;2022-07-01T00:00:41;0.67;;;0.50;;
16665;SDS011;8446;50.998;6.250;2022-07-01T00:03:08;0.70;;;0.50;;
16665;SDS011;8446;50.998;6.250;2022-07-01T00:05:35;0.63;;;0.50;;
16665;SDS011;8446;50.998;6.250;2022-07-01T00:08:02;0.70;;;0.50;;
16665;SDS011;8446;50.998;6.250;2022-07-01T00:10:29;0.70;;;0.50;;
16665;SDS011;8446;50.998;6.250;2022-07-01T00:12:57;0.70;;;0.50;;
16665;SDS011;8446;50.998;6.250;2022-07-01T00:15:24;0.60;;;0.50;;
16665;SDS011;8446;50.998;6.250;2022-07-01T00:17:51;0.70;;;0.50;;
16665;SDS011;8446;50.998;6.250;2022-07-01T00:20:18;0.70;;;0.50;;
16665;SDS011;8446;50.998;6.250;2022-07-01T00:22:45;0.70;;;0.50;;
16665;SDS011;8446;50.998;6.250;2022-07-01T00:25:12;0.70;;;0.50;;
16665;SDS011;8446;50.998;6.250;2022-07-01T00:27:40;0.60;;;0.50;;
16665;SDS011;8446;50.998;6.250;2022-07-01T00:30:09;0.60;;;0.50;;
16665;SDS011;8446;50.998;6.250;2022-07-01T00:32:36;0.63;;;0.50;;
16665;SDS011;8446;50.998;6.250;2022-07-01T00:35:03;0.60;;;0.50;;
16665;SDS011;8446;50.998;6.250;2022-07-01T00:37:31;0.70;;;0.50;;
16665;SDS011;8446;50.998;6.250;2022-07-01T00:39:58;0.60;;;0.50;;
16665;SDS011;8446;50.998;6.250;2022-07-01T00:42:24;0.70;;;0.50;;
16665;SDS011;8446;50.998;6.250;2022-07-01T00:44:51;0.70;;;0.50;;
16665;SDS011;8446;50.998;6.250;2022-07-01T00:47:20;0.60;;;0.50;;
16665;SDS011;8446;50.998;6.250;2022-07-01T00:49:47;0.63;;;0.50;;
16665;SDS011;8446;50.998;6.250;2022-07-01T00:52:14;0.60;;;0.50;;
16665;SDS011;8446;50.998;6.250;2022-07-01T00:54:41;0.70;;;0.50;;
16665;SDS011;8446;50.998;6.250;2022-07-01T00:57:10;0.60;;;0.50;;
16665;SDS011;8446;50.998;6.250;2022-07-01T00:59:37;0.70;;;0.50;;
16665;SDS011;8446;50.998;6.250;2022-07-01T01:02:06;0.70;;;0.50;;
16665;SDS011;8446;50.998;6.250;2022-07-01T01:04:34;0.70;;;0.50;;
16665;SDS011;8446;50.998;6.250;2022-07-01T01:07:02;0.60;;;0.50;;
16665;SDS011;8446;50.998;6.250;2022-07-01T01:09:29;0.70;;;0.50;;
16665;SDS011;8446;50.998;6.250;2022-07-01T01:11:56;0.63;;;0.50;;
16665;SDS011;8446;50.998;6.250;2022-07-01T01:14:24;0.67;;;0.50;;
16665;SDS011;8446;50.998;6.250;2022-07-01T01:16:51;0.70;;;0.50;;
16665;SDS011;8446;50.998;6.250;2022-07-01T01:19:18;0.70;;;0.50;;
16665;SDS011;8446;50.998;6.250;2022-07-01T01:21:46;0.70;;;0.50;;
16665;SDS011;8446;50.998;6.250;2022-07-01T01:24:13;0.70;;;0.50;;
16665;SDS011;8446;50.998;6.250;2022-07-01T01:26:40;0.70;;;0.50;;
16665;SDS011;8446;50.998;6.250;2022-07-01T01:29:07;0.70;;;0.50;;
16665;SDS011;8446;50.998;6.250;2022-07-01T01:31:34;0.63;;;0.50;;
16665;SDS011;8446;50.998;6.250;2022-07-01T01:34:01;0.60;;;0.50;;
16665;SDS011;8446;50.998;6.250;2022-07-01T01:36:28;0.60;;;0.50;;
16665;SDS011;8446;50.998;6.250;2022-07-01T01:38:57;0.60;;;0.50;;
16665;SDS011;8446;50.998;6.250;2022-07-01T01:41:26;0.70;;;0.50;;
16665;SDS011;8446;50.998;6.250;2022-07-01T01:43:53;0.70;;;0.50;;
16665;SDS011;8446;50.998;6.250;2022-07-01T01:46:20;0.63;;;0.50;;
16665;SDS011;8446;50.998;6.250;2022-07-01T01:48:47;0.70;;;0.50;;
16665;SDS011;8446;50.998;6.250;2022-07-01T01:51:14;0.70;;;0.50;;
16665;SDS011;8446;50.998;6.250;2022-07-01T01:53:43;0.70;;;0.50;;
16665;SDS011;8446;50.998;6.250;2022-07-01T01:56:12;0.60;;;0.50;;
16665;SDS011;8446;50.998;6.250;2022-07-01T01:58:39;0.60;;;0.50;;
16665;SDS011;8446;50.998;6.250;2022-07-01T02:01:08;0.70;;;0.50;;
16665;SDS011;8446;50.998;6.250;2022-07-01T02:03:35;0.70;;;0.50;;
16665;SDS011;8446;50.998;6.250;2022-07-01T02:06:03;0.60;;;0.50;;
16665;SDS011;8446;50.998;6.250;2022-07-01T02:08:30;0.70;;;0.50;;
16665;SDS011;8446;50.998;6.250;2022-07-01T02:10:57;0.60;;;0.50;;
16665;SDS011;8446;50.998;6.250;2022-07-01T02:13:26;0.70;;;0.57;;
16665;SDS011;8446;50.998;6.250;2022-07-01T02:15:53;0.60;;;0.50;;
16665;SDS011;8446;50.998;6.250;2022-07-01T02:18:20;0.60;;;0.50;;
16665;SDS011;8446;50.998;6.250;2022-07-01T02:20:47;0.60;;;0.50;;
16665;SDS011;8446;50.998;6.250;2022-07-01T02:23:14;0.70;;;0.50;;
16665;SDS011;8446;50.998;6.250;2022-07-01T02:25:41;0.60;;;0.50;;
16665;SDS011;8446;50.998;6.250;2022-07-01T02:28:08;0.60;;;0.50;;
16665;SDS011;8446;50.998;6.250;2022-07-01T02:30:37;0.60;;;0.50;;
16665;SDS011;8446;50.998;6.250;2022-07-01T02:33:04;0.60;;;0.50;;
16665;SDS011;8446;50.998;6.250;2022-07-01T02:35:31;0.60;;;0.50;;
16665;SDS011;8446;50.998;6.250;2022-07-01T02:37:59;0.60;;;0.50;;
16665;SDS011;8446;50.998;6.250;2022-07-01T02:40:26;0.60;;;0.50;;
16665;SDS011;8446;50.998;6.250;2022-07-01T02:42:53;0.60;;;0.50;;
16665;SDS011;8446;50.998;6.250;2022-07-01T02:45:20;0.63;;;0.50;;
16665;SDS011;8446;50.998;6.250;2022-07-01T02:47:48;0.60;;;0.50;;
16665;SDS011;8446;50.998;6.250;2022-07-01T02:50:18;0.60;;;0.50;;
16665;SDS011;8446;50.998;6.250;2022-07-01T02:52:45;0.60;;;0.50;;
16665;SDS011;8446;50.998;6.250;2022-07-01T02:55:13;0.60;;;0.50;;
16665;SDS011;8446;50.998;6.250;2022-07-01T02:57:40;0.67;;;0.50;;
16665;SDS011;8446;50.998;6.250;2022-07-01T03:00:09;0.60;;;0.50;;
16665;SDS011;8446;50.998;6.250;2022-07-01T03:02:38;0.60;;;0.50;;
16665;SDS011;8446;50.998;6.250;2022-07-01T03:05:07;0.60;;;0.50;;
16665;SDS011;8446;50.998;6.250;2022-07-01T03:07:35;0.60;;;0.50;;
16665;SDS011;8446;50.998;6.250;2022-07-01T03:10:02;0.60;;;0.50;;
16665;SDS011;8446;50.998;6.250;2022-07-01T03:12:30;0.60;;;0.50;;
16665;SDS011;8446;50.998;6.250;2022-07-01T03:15:00;0.60;;;0.50;;
16665;SDS011;8446;50.998;6.250;2022-07-01T03:17:28;0.60;;;0.50;;
16665;SDS011;8446;50.998;6.250;2022-07-01T03:19:56;0.60;;;0.50;;
16665;SDS011;8446;50.998;6.250;2022-07-01T03:22:26;0.60;;;0.50;;
16665;SDS011;8446;50.998;6.250;2022-07-01T03:24:54;0.60;;;0.50;;
16665;SDS011;8446;50.998;6.250;2022-07-01T03:27:22;0.60;;;0.50;;
16665;SDS011;8446;50.998;6.250;2022-07-01T03:29:49;0.60;;;0.50;;
16665;SDS011;8446;50.998;6.250;2022-07-01T03:32:17;0.70;;;0.50;;
16665;SDS011;8446;50.998;6.250;2022-07-01T03:34:45;0.60;;;0.50;;
16665;SDS011;8446;50.998;6.250;2022-07-01T03:37:13;0.60;;;0.50;;
16665;SDS011;8446;50.998;6.250;2022-07-01T03:39:43;0.60;;;0.50;;
16665;SDS011;8446;50.998;6.250;2022-07-01T03:42:10;0.70;;;0.50;;
16665;SDS011;8446;50.998;6.250;2022-07-01T03:44:38;0.60;;;0.50;;
16665;SDS011;8446;50.998;6.250;2022-07-01T03:47:05;0.60;;;0.50;;
16665;SDS011;8446;50.998;6.250;2022-07-01T03:49:32;0.60;;;0.50;;
16665;SDS011;8446;50.998;6.250;2022-07-01T03:51:59;0.60;;;0.50;;
16665;SDS011;8446;50.998;6.250;2022-07-01T03:54:26;0.70;;;0.50;;
16665;SDS011;8446;50.998;6.250;2022-07-01T03:56:57;0.60;;;0.50;;
16665;SDS011;8446;50.998;6.250;2022-07-01T03:59:24;0.60;;;0.50;;
16665;SDS011;8446;50.998;6.250;2022-07-01T04:01:51;0.60;;;0.50;;
16665;SDS011;8446;50.998;6.250;2022-07-01T04:04:18;0.60;;;0.50;;
16665;SDS011;8446;50.998;6.250;2022-07-01T04:06:45;0.60;;;0.50;;
16665;SDS011;8446;50.998;6.250;2022-07-01T04:09:14;0.60;;;0.50;;
16665;SDS011;8446;50.998;6.250;2022-07-01T04:11:42;0.60;;;0.50;;
16665;SDS011;8446;50.998;6.250;2022-07-01T04:14:12;0.60;;;0.50;;
16665;SDS011;8446;50.998;6.250;2022-07-01T04:16:39;0.60;;;0.50;;
16665;SDS011;8446;50.998;6.250;2022-07-01T04:19:06;0.60;;;0.50;;
16665;SDS011;8446;50.998;6.250;2022-07-01T04:21:34;0.60;;;0.50;;
16665;SDS011;8446;50.998;6.250;2022-07-01T04:24:18;0.60;;;0.50;;
16665;SDS011;8446;50.998;6.250;2022-07-01T04:26:45;0.60;;;0.50;;
16665;SDS011;8446;50.998;6.250;2022-07-01T04:29:13;0.60;;;0.50;;
16665;SDS011;8446;50.998;6.250;2022-07-01T04:31:40;0.60;;;0.50;;
16665;SDS011;8446;50.998;6.250;2022-07-01T04:34:08;0.60;;;0.50;;
16665;SDS011;8446;50.998;6.250;2022-07-01T04:36:36;0.60;;;0.50;;
16665;SDS011;8446;50.998;6.250;2022-07-01T04:39:04;0.60;;;0.50;;
16665;SDS011;8446;50.998;6.250;2022-07-01T04:41:31;0.60;;;0.50;;
16665;SDS011;8446;50.998;6.250;2022-07-01T04:44:17;0.60;;;0.50;;
16665;SDS011;8446;50.998;6.250;2022-07-01T04:46:44;0.60;;;0.50;;
16665;SDS011;8446;50.998;6.250;2022-07-01T04:49:11;0.60;;;0.50;;
16665;SDS011;8446;50.998;6.250;2022-07-01T04:51:38;0.60;;;0.50;;
16665;SDS011;8446;50.998;6.250;2022-07-01T04:54:06;0.60;;;0.50;;
16665;SDS011;8446;50.998;6.250;2022-07-01T04:56:34;0.60;;;0.50;;
16665;SDS011;8446;50.998;6.250;2022-07-01T04:59:01;0.60;;;0.50;;
16665;SDS011;8446;50.998;6.250;2022-07-01T05:01:30;0.60;;;0.50;;
16665;SDS011;8446;50.998;6.250;2022-07-01T05:03:57;0.60;;;0.50;;
16665;SDS011;8446;50.998;6.250;2022-07-01T05:06:24;0.60;;;0.50;;
16665;SDS011;8446;50.998;6.250;2022-07-01T05:08:51;0.60;;;0.50;;
16665;SDS011;8446;50.998;6.250;2022-07-01T05:11:18;0.60;;;0.50;;
16665;SDS011;8446;50.998;6.250;2022-07-01T05:13:45;0.60;;;0.50;;
16665;SDS011;8446;50.998;6.250;2022-07-01T05:16:12;0.60;;;0.50;;
16665;SDS011;8446;50.998;6.250;2022-07-01T05:18:40;0.60;;;0.50;;
16665;SDS011;8446;50.998;6.250;2022-07-01T05:21:25;0.60;;;0.50;;
16665;SDS011;8446;50.998;6.250;2022-07-01T05:24:09;0.60;;;0.50;;
16665;SDS011;8446;50.998;6.250;2022-07-01T05:26:36;0.60;;;0.50;;
16665;SDS011;8446;50.998;6.250;2022-07-01T05:29:03;0.60;;;0.50;;
16665;SDS011;8446;50.998;6.250;2022-07-01T05:31:30;0.60;;;0.50;;
16665;SDS011;8446;50.998;6.250;2022-07-01T05:33:58;0.60;;;0.50;;
16665;SDS011;8446;50.998;6.250;2022-07-01T05:36:25;0.60;;;0.50;;
16665;SDS011;8446;50.998;6.250;2022-07-01T05:38:52;0.60;;;0.50;;
16665;SDS011;8446;50.998;6.250;2022-07-01T05:41:19;0.60;;;0.50;;
16665;SDS011;8446;50.998;6.250;2022-07-01T05:43:46;0.60;;;0.50;;
16665;SDS011;8446;50.998;6.250;2022-07-01T05:46:13;0.60;;;0.50;;
16665;SDS011;8446;50.998;6.250;2022-07-01T05:48:40;0.60;;;0.50;;
16665;SDS011;8446;50.998;6.250;2022-07-01T05:51:08;0.60;;;0.50;;
16665;SDS011;8446;50.998;6.250;2022-07-01T05:53:35;0.60;;;0.50;;
16665;SDS011;8446;50.998;6.250;2022-07-01T05:56:02;0.60;;;0.50;;
16665;SDS011;8446;50.998;6.250;2022-07-01T05:58:29;0.60;;;0.50;;
16665;SDS011;8446;50.998;6.250;2022-07-01T06:00:56;0.60;;;0.50;;
16665;SDS011;8446;50.998;6.250;2022-07-01T06:03:23;9.10;;;2.77;;
16665;SDS011;8446;50.998;6.250;2022-07-01T06:05:50;2.80;;;2.40;;
16665;SDS011;8446;50.998;6.250;2022-07-01T06:08:18;5.37;;;3.40;;
16665;SDS011;8446;50.998;6.250;2022-07-01T06:10:45;11.37;;;5.20;;
16665;SDS011;8446;50.998;6.250;2022-07-01T06:13:12;7.80;;;4.50;;
16665;SDS011;8446;50.998;6.250;2022-07-01T06:15:39;9.57;;;4.47;;
16665;SDS011;8446;50.998;6.250;2022-07-01T06:18:06;11.13;;;4.50;;
16665;SDS011;8446;50.998;6.250;2022-07-01T06:20:33;5.90;;;4.03;;
16665;SDS011;8446;50.998;6.250;2022-07-01T06:23:00;5.30;;;4.23;;
16665;SDS011;8446;50.998;6.250;2022-07-01T06:25:29;14.20;;;6.30;;
16665;SDS011;8446;50.998;6.250;2022-07-01T06:27:55;9.33;;;5.20;;
16665;SDS011;8446;50.998;6.250;2022-07-01T06:30:22;12.97;;;5.87;;
16665;SDS011;8446;50.998;6.250;2022-07-01T06:32:49;11.20;;;5.47;;
16665;SDS011;8446;50.998;6.250;2022-07-01T06:35:16;14.80;;;5.73;;
16665;SDS011;8446;50.998;6.250;2022-07-01T06:37:43;9.40;;;5.60;;
16665;SDS011;8446;50.998;6.250;2022-07-01T06:40:10;15.80;;;6.70;;
16665;SDS011;8446;50.998;6.250;2022-07-01T06:42:38;8.70;;;6.27;;
16665;SDS011;8446;50.998;6.250;2022-07-01T06:45:05;15.37;;;6.90;;
16665;SDS011;8446;50.998;6.250;2022-07-01T06:47:33;7.43;;;5.70;;
16665;SDS011;8446;50.998;6.250;2022-07-01T06:50:01;19.73;;;5.10;;
16665;SDS011;8446;50.998;6.250;2022-07-01T06:52:28;11.83;;;5.63;;
16665;SDS011;8446;50.998;6.250;2022-07-01T06:54:55;18.47;;;6.20;;
16665;SDS011;8446;50.998;6.250;2022-07-01T06:57:22;23.73;;;5.53;;
16665;SDS011;8446;50.998;6.250;2022-07-01T06:59:50;7.87;;;5.47;;
16665;SDS011;8446;50.998;6.250;2022-07-01T07:02:17;5.70;;;4.40;;
16665;SDS011;8446;50.998;6.250;2022-07-01T07:04:45;8.97;;;4.30;;
16665;SDS011;8446;50.998;6.250;2022-07-01T07:07:12;5.90;;;4.70;;
16665;SDS011;8446;50.998;6.250;2022-07-01T07:09:39;7.00;;;4.20;;
16665;SDS011;8446;50.998;6.250;2022-07-01T07:12:06;9.60;;;4.10;;
16665;SDS011;8446;50.998;6.250;2022-07-01T07:14:33;7.33;;;4.70;;
16665;SDS011;8446;50.998;6.250;2022-07-01T07:17:02;6.10;;;4.17;;
16665;SDS011;8446;50.998;6.250;2022-07-01T07:19:29;4.30;;;3.87;;
16665;SDS011;8446;50.998;6.250;2022-07-01T07:21:56;7.23;;;3.90;;
16665;SDS011;8446;50.998;6.250;2022-07-01T07:24:23;9.13;;;5.13;;
16665;SDS011;8446;50.998;6.250;2022-07-01T07:26:49;18.93;;;6.23;;
16665;SDS011;8446;50.998;6.250;2022-07-01T07:29:16;9.73;;;4.50;;
16665;SDS011;8446;50.998;6.250;2022-07-01T07:31:43;4.50;;;3.90;;
16665;SDS011;8446;50.998;6.250;2022-07-01T07:34:13;13.47;;;4.13;;
16665;SDS011;8446;50.998;6.250;2022-07-01T07:36:40;6.33;;;3.73;;
16665;SDS011;8446;50.998;6.250;2022-07-01T07:39:07;5.90;;;3.70;;
16665;SDS011;8446;50.998;6.250;2022-07-01T07:41:33;5.40;;;3.63;;
16665;SDS011;8446;50.998;6.250;2022-07-01T07:44:00;5.83;;;3.20;;
16665;SDS011;8446;50.998;6.250;2022-07-01T07:46:27;8.37;;;3.60;;
16665;SDS011;8446;50.998;6.250;2022-07-01T07:48:54;11.73;;;3.97;;
16665;SDS011;8446;50.998;6.250;2022-07-01T07:51:22;4.47;;;2.83;;
16665;SDS011;8446;50.998;6.250;2022-07-01T07:53:49;8.83;;;2.70;;
16665;SDS011;8446;50.998;6.250;2022-07-01T07:56:16;3.90;;;2.60;;
16665;SDS011;8446;50.998;6.250;2022-07-01T07:58:43;8.00;;;2.83;;
16665;SDS011;8446;50.998;6.250;2022-07-01T08:01:10;9.00;;;3.33;;
16665;SDS011;8446;50.998;6.250;2022-07-01T08:03:37;5.83;;;3.40;;
16665;SDS011;8446;50.998;6.250;2022-07-01T08:06:04;3.40;;;3.00;;
16665;SDS011;8446;50.998;6.250;2022-07-01T08:08:32;4.13;;;3.43;;
16665;SDS011;8446;50.998;6.250;2022-07-01T08:10:59;7.10;;;3.50;;
16665;SDS011;8446;50.998;6.250;2022-07-01T08:13:26;16.67;;;3.87;;
16665;SDS011;8446;50.998;6.250;2022-07-01T08:15:53;5.07;;;3.93;;
16665;SDS011;8446;50.998;6.250;2022-07-01T08:18:21;3.57;;;2.50;;
16665;SDS011;8446;50.998;6.250;2022-07-01T08:20:48;3.90;;;3.00;;
16665;SDS011;8446;50.998;6.250;2022-07-01T08:23:17;6.47;;;2.70;;
16665;SDS011;8446;50.998;6.250;2022-07-01T08:25:46;4.83;;;2.60;;
16665;SDS011;8446;50.998;6.250;2022-07-01T08:28:13;6.93;;;3.10;;
16665;SDS011;8446;50.998;6.250;2022-07-01T08:30:40;4.23;;;2.43;;
16665;SDS011;8446;50.998;6.250;2022-07-01T08:33:07;8.57;;;2.93;;
16665;SDS011;8446;50.998;6.250;2022-07-01T08:35:34;4.00;;;2.67;;
16665;SDS011;8446;50.998;6.250;2022-07-01T08:38:01;2.43;;;2.00;;
16665;SDS011;8446;50.998;6.250;2022-07-01T08:40:28;7.90;;;2.70;;
16665;SDS011;8446;50.998;6.250;2022-07-01T08:42:59;3.27;;;2.10;;
16665;SDS011;8446;50.998;6.250;2022-07-01T08:45:28;3.37;;;2.10;;
16665;SDS011;8446;50.998;6.250;2022-07-01T08:47:57;3.30;;;2.30;;
16665;SDS011;8446;50.998;6.250;2022-07-01T08:50:27;6.80;;;2.13;;
16665;SDS011;8446;50.998;6.250;2022-07-01T08:52:55;1.70;;;1.30;;
16665;SDS011;8446;50.998;6.250;2022-07-01T08:55:22;2.97;;;1.63;;
16665;SDS011;8446;50.998;6.250;2022-07-01T08:57:49;5.00;;;1.80;;
16665;SDS011;8446;50.998;6.250;2022-07-01T09:00:18;4.93;;;1.60;;
16665;SDS011;8446;50.998;6.250;2022-07-01T09:02:49;5.60;;;1.60;;
16665;SDS011;8446;50.998;6.250;2022-07-01T09:05:16;4.97;;;1.60;;
16665;SDS011;8446;50.998;6.250;2022-07-01T09:07:43;3.20;;;1.40;;
16665;SDS011;8446;50.998;6.250;2022-07-01T09:10:12;2.60;;;1.40;;
16665;SDS011;8446;50.998;6.250;2022-07-01T09:12:39;5.83;;;1.30;;
16665;SDS011;8446;50.998;6.250;2022-07-01T09:15:19;3.10;;;1.70;;
16665;SDS011;8446;50.998;6.250;2022-07-01T09:17:53;3.07;;;1.33;;
16665;SDS011;8446;50.998;6.250;2022-07-01T09:20:25;1.90;;;1.20;;
16665;SDS011;8446;50.998;6.250;2022-07-01T09:22:56;2.37;;;1.20;;
16665;SDS011;8446;50.998;6.250;2022-07-01T09:25:26;2.13;;;1.30;;
16665;SDS011;8446;50.998;6.250;2022-07-01T09:28:02;4.60;;;1.30;;
16665;SDS011;8446;50.998;6.250;2022-07-01T09:30:31;5.03;;;1.50;;
16665;SDS011;8446;50.998;6.250;2022-07-01T09:33:05;4.50;;;1.50;;
16665;SDS011;8446;50.998;6.250;2022-07-01T09:35:39;4.03;;;1.40;;
16665;SDS011;8446;50.998;6.250;2022-07-01T09:38:09;4.23;;;1.23;;
16665;SDS011;8446;50.998;6.250;2022-07-01T09:43:27;3.90;;;1.13;;
16665;SDS011;8446;50.998;6.250;2022-07-01T09:45:57;3.83;;;1.27;;
16665;SDS011;8446;50.998;6.250;2022-07-01T09:48:25;1.20;;;1.10;;
16665;SDS011;8446;50.998;6.250;2022-07-01T09:51:08;5.03;;;1.73;;
16665;SDS011;8446;50.998;6.250;2022-07-01T09:53:36;6.83;;;1.57;;
16665;SDS011;8446;50.998;6.250;2022-07-01T09:56:04;3.33;;;1.77;;
16665;SDS011;8446;50.998;6.250;2022-07-01T09:58:31;4.30;;;1.60;;
16665;SDS011;8446;50.998;6.250;2022-07-01T10:00:59;3.37;;;1.20;;
16665;SDS011;8446;50.998;6.250;2022-07-01T10:03:28;3.50;;;1.40;;
16665;SDS011;8446;50.998;6.250;2022-07-01T10:06:08;1.80;;;1.00;;
16665;SDS011;8446;50.998;6.250;2022-07-01T10:08:50;5.90;;;1.53;;
16665;SDS011;8446;50.998;6.250;2022-07-01T10:11:37;4.60;;;1.40;;
16665;SDS011;8446;50.998;6.250;2022-07-01T10:14:18;3.83;;;1.30;;
16665;SDS011;8446;50.998;6.250;2022-07-01T10:16:48;2.00;;;1.40;;
16665;SDS011;8446;50.998;6.250;2022-07-01T10:19:25;1.97;;;0.90;;
16665;SDS011;8446;50.998;6.250;2022-07-01T10:21:54;5.17;;;0.90;;
16665;SDS011;8446;50.998;6.250;2022-07-01T10:24:24;3.17;;;1.43;;
16665;SDS011;8446;50.998;6.250;2022-07-01T10:26:52;2.83;;;1.27;;
16665;SDS011;8446;50.998;6.250;2022-07-01T10:29:29;1.33;;;0.97;;
16665;SDS011;8446;50.998;6.250;2022-07-01T10:32:03;0.80;;;0.80;;
16665;SDS011;8446;50.998;6.250;2022-07-01T10:34:37;5.80;;;1.20;;
16665;SDS011;8446;50.998;6.250;2022-07-01T10:37:05;1.53;;;0.93;;
16665;SDS011;8446;50.998;6.250;2022-07-01T10:42:30;2.40;;;1.10;;
16665;SDS011;8446;50.998;6.250;2022-07-01T10:44:59;1.10;;;1.00;;
16665;SDS011;8446;50.998;6.250;2022-07-01T10:47:34;1.03;;;0.93;;
16665;SDS011;8446;50.998;6.250;2022-07-01T10:50:11;1.10;;;1.00;;
16665;SDS011;8446;50.998;6.250;2022-07-01T10:55:35;3.40;;;1.07;;
16665;SDS011;8446;50.998;6.250;2022-07-01T10:58:03;2.40;;;1.10;;
16665;SDS011;8446;50.998;6.250;2022-07-01T11:00:31;5.80;;;1.27;;
16665;SDS011;8446;50.998;6.250;2022-07-01T11:05:51;2.50;;;1.07;;
16665;SDS011;8446;50.998;6.250;2022-07-01T11:08:20;3.47;;;1.13;;
16665;SDS011;8446;50.998;6.250;2022-07-01T11:10:52;3.03;;;1.30;;
16665;SDS011;8446;50.998;6.250;2022-07-01T11:13:21;3.10;;;1.10;;
16665;SDS011;8446;50.998;6.250;2022-07-01T11:15:48;4.47;;;0.97;;
16665;SDS011;8446;50.998;6.250;2022-07-01T11:18:16;1.30;;;1.00;;
16665;SDS011;8446;50.998;6.250;2022-07-01T11:20:44;1.20;;;1.00;;
16665;SDS011;8446;50.998;6.250;2022-07-01T11:23:11;4.17;;;1.20;;
16665;SDS011;8446;50.998;6.250;2022-07-01T11:25:38;2.67;;;1.63;;
16665;SDS011;8446;50.998;6.250;2022-07-01T11:28:06;2.43;;;0.83;;
16665;SDS011;8446;50.998;6.250;2022-07-01T11:30:33;3.53;;;0.90;;
16665;SDS011;8446;50.998;6.250;2022-07-01T11:33:00;2.70;;;1.00;;
16665;SDS011;8446;50.998;6.250;2022-07-01T11:35:27;2.63;;;0.90;;
16665;SDS011;8446;50.998;6.250;2022-07-01T11:38:15;1.93;;;0.77;;
16665;SDS011;8446;50.998;6.250;2022-07-01T11:41:01;3.23;;;1.07;;
16665;SDS011;8446;50.998;6.250;2022-07-01T11:43:30;1.30;;;1.17;;
16665;SDS011;8446;50.998;6.250;2022-07-01T11:45:59;8.33;;;1.27;;
16665;SDS011;8446;50.998;6.250;2022-07-01T11:48:27;5.17;;;1.20;;
16665;SDS011;8446;50.998;6.250;2022-07-01T11:50:59;1.73;;;1.10;;
16665;SDS011;8446;50.998;6.250;2022-07-01T11:53:28;2.90;;;1.03;;
16665;SDS011;8446;50.998;6.250;2022-07-01T11:55:55;4.50;;;1.33;;
16665;SDS011;8446;50.998;6.250;2022-07-01T11:58:22;4.07;;;1.00;;
16665;SDS011;8446;50.998;6.250;2022-07-01T12:00:49;1.10;;;1.00;;
16665;SDS011;8446;50.998;6.250;2022-07-01T12:03:29;3.50;;;1.00;;
16665;SDS011;8446;50.998;6.250;2022-07-01T12:05:57;3.27;;;0.90;;
16665;SDS011;8446;50.998;6.250;2022-07-01T12:08:24;3.60;;;1.20;;
16665;SDS011;8446;50.998;6.250;2022-07-01T12:10:53;1.97;;;1.07;;
16665;SDS011;8446;50.998;6.250;2022-07-01T12:13:23;7.63;;;1.27;;
16665;SDS011;8446;50.998;6.250;2022-07-01T12:15:51;2.03;;;0.80;;
16665;SDS011;8446;50.998;6.250;2022-07-01T12:18:18;1.77;;;1.30;;
16665;SDS011;8446;50.998;6.250;2022-07-01T12:20:48;2.67;;;1.17;;
16665;SDS011;8446;50.998;6.250;2022-07-01T12:23:16;1.40;;;1.00;;
16665;SDS011;8446;50.998;6.250;2022-07-01T12:25:46;2.50;;;1.00;;
16665;SDS011;8446;50.998;6.250;2022-07-01T12:28:26;1.17;;;0.90;;
16665;SDS011;8446;50.998;6.250;2022-07-01T12:31:01;1.30;;;0.97;;
16665;SDS011;8446;50.998;6.250;2022-07-01T12:33:31;1.73;;;0.93;;
16665;SDS011;8446;50.998;6.250;2022-07-01T12:36:00;1.83;;;1.00;;
16665;SDS011;8446;50.998;6.250;2022-07-01T12:38:27;4.20;;;0.90;;
16665;SDS011;8446;50.998;6.250;2022-07-01T12:40:54;1.27;;;0.80;;
16665;SDS011;8446;50.998;6.250;2022-07-01T12:43:22;1.60;;;1.07;;
16665;SDS011;8446;50.998;6.250;2022-07-01T12:45:56;1.47;;;0.97;;
16665;SDS011;8446;50.998;6.250;2022-07-01T12:48:24;3.00;;;1.10;;
16665;SDS011;8446;50.998;6.250;2022-07-01T12:50:51;3.20;;;1.13;;
16665;SDS011;8446;50.998;6.250;2022-07-01T12:53:20;6.67;;;1.63;;
16665;SDS011;8446;50.998;6.250;2022-07-01T12:55:48;2.93;;;1.10;;
16665;SDS011;8446;50.998;6.250;2022-07-01T12:58:16;6.10;;;1.27;;
16665;SDS011;8446;50.998;6.250;2022-07-01T13:00:46;1.73;;;0.80;;
16665;SDS011;8446;50.998;6.250;2022-07-01T13:03:18;3.40;;;1.30;;
16665;SDS011;8446;50.998;6.250;2022-07-01T13:05:46;1.93;;;1.00;;
16665;SDS011;8446;50.998;6.250;2022-07-01T13:08:12;2.40;;;1.27;;
16665;SDS011;8446;50.998;6.250;2022-07-01T13:10:39;2.60;;;1.10;;
16665;SDS011;8446;50.998;6.250;2022-07-01T13:13:07;1.10;;;0.83;;
16665;SDS011;8446;50.998;6.250;2022-07-01T13:15:34;3.93;;;1.10;;
16665;SDS011;8446;50.998;6.250;2022-07-01T13:18:03;1.90;;;1.00;;
16665;SDS011;8446;50.998;6.250;2022-07-01T13:20:30;4.20;;;1.20;;
16665;SDS011;8446;50.998;6.250;2022-07-01T13:22:58;3.40;;;1.50;;
16665;SDS011;8446;50.998;6.250;2022-07-01T13:25:25;4.73;;;1.17;;
16665;SDS011;8446;50.998;6.250;2022-07-01T13:27:53;2.80;;;1.13;;
16665;SDS011;8446;50.998;6.250;2022-07-01T13:30:20;5.60;;;1.00;;
16665;SDS011;8446;50.998;6.250;2022-07-01T13:32:47;3.00;;;1.10;;
16665;SDS011;8446;50.998;6.250;2022-07-01T13:35:18;1.73;;;1.20;;
16665;SDS011;8446;50.998;6.250;2022-07-01T13:37:46;8.90;;;1.13;;
16665;SDS011;8446;50.998;6.250;2022-07-01T13:40:13;5.50;;;1.27;;
16665;SDS011;8446;50.998;6.250;2022-07-01T13:42:40;6.67;;;1.17;;
16665;SDS011;8446;50.998;6.250;2022-07-01T13:45:07;1.73;;;0.93;;
16665;SDS011;8446;50.998;6.250;2022-07-01T13:47:35;1.20;;;0.80;;
16665;SDS011;8446;50.998;6.250;2022-07-01T13:50:03;2.80;;;1.10;;
16665;SDS011;8446;50.998;6.250;2022-07-01T13:52:32;5.43;;;0.80;;
16665;SDS011;8446;50.998;6.250;2022-07-01T13:54:59;1.67;;;0.90;;
16665;SDS011;8446;50.998;6.250;2022-07-01T13:57:26;2.07;;;1.13;;
16665;SDS011;8446;50.998;6.250;2022-07-01T13:59:53;1.73;;;0.93;;
16665;SDS011;8446;50.998;6.250;2022-07-01T14:02:22;2.30;;;1.00;;
16665;SDS011;8446;50.998;6.250;2022-07-01T14:04:49;4.90;;;1.10;;
16665;SDS011;8446;50.998;6.250;2022-07-01T14:07:16;1.73;;;0.93;;
16665;SDS011;8446;50.998;6.250;2022-07-01T14:09:44;1.77;;;1.07;;
16665;SDS011;8446;50.998;6.250;2022-07-01T14:12:12;2.40;;;1.07;;
16665;SDS011;8446;50.998;6.250;2022-07-01T14:14:40;1.07;;;0.97;;
16665;SDS011;8446;50.998;6.250;2022-07-01T14:17:07;2.87;;;1.00;;
16665;SDS011;8446;50.998;6.250;2022-07-01T14:19:34;2.70;;;1.10;;
16665;SDS011;8446;50.998;6.250;2022-07-01T14:22:01;1.63;;;0.90;;
16665;SDS011;8446;50.998;6.250;2022-07-01T14:24:28;4.80;;;1.20;;
16665;SDS011;8446;50.998;6.250;2022-07-01T14:26:56;3.23;;;0.97;;
16665;SDS011;8446;50.998;6.250;2022-07-01T14:29:23;1.00;;;0.90;;
16665;SDS011;8446;50.998;6.250;2022-07-01T14:31:50;0.83;;;0.80;;
16665;SDS011;8446;50.998;6.250;2022-07-01T14:34:17;1.37;;;0.93;;
16665;SDS011;8446;50.998;6.250;2022-07-01T14:36:44;3.00;;;0.90;;
16665;SDS011;8446;50.998;6.250;2022-07-01T14:39:11;1.33;;;0.90;;
16665;SDS011;8446;50.998;6.250;2022-07-01T14:41:38;0.80;;;0.70;;
16665;SDS011;8446;50.998;6.250;2022-07-01T14:44:06;3.27;;;0.73;;
16665;SDS011;8446;50.998;6.250;2022-07-01T14:46:33;4.20;;;0.80;;
16665;SDS011;8446;50.998;6.250;2022-07-01T14:49:00;0.80;;;0.70;;
16665;SDS011;8446;50.998;6.250;2022-07-01T14:51:27;1.00;;;0.80;;
16665;SDS011;8446;50.998;6.250;2022-07-01T14:53:54;1.40;;;0.70;;
16665;SDS011;8446;50.998;6.250;2022-07-01T14:56:21;1.30;;;0.83;;
16665;SDS011;8446;50.998;6.250;2022-07-01T14:58:48;0.93;;;0.60;;
16665;SDS011;8446;50.998;6.250;2022-07-01T15:01:16;1.10;;;0.70;;
16665;SDS011;8446;50.998;6.250;2022-07-01T15:03:43;1.17;;;0.80;;
16665;SDS011;8446;50.998;6.250;2022-07-01T15:06:10;1.10;;;0.83;;
16665;SDS011;8446;50.998;6.250;2022-07-01T15:08:37;3.63;;;0.77;;
16665;SDS011;8446;50.998;6.250;2022-07-01T15:11:04;1.63;;;0.80;;
16665;SDS011;8446;50.998;6.250;2022-07-01T15:13:32;0.93;;;0.80;;
16665;SDS011;8446;50.998;6.250;2022-07-01T15:16:01;1.73;;;0.80;;
16665;SDS011;8446;50.998;6.250;2022-07-01T15:18:29;1.60;;;0.87;;